Главная страница
METAR-TAF:

METAR-TAF

Аэропорты :

Миккели, Финляндия

широта: 61-44N, долгота: 027-18E, высота над уровнем моря: 138 м

Текущие метеонаблюдения

Эта сводка был подготовлена 14 минут назад, в 23:50 UTC
Ветер 4 Узел от восточно-юго-восточный
Температура -4°C
Влажность 93%
Давление 1029 hPa
Видимость: 8000 м
Сплошная облачность на высоте 500 фута
(Слабый) Снежные зерна

METAR: EFMI 182350Z AUTO 11004KT 8000 -SG OVC005 M04/M05 Q1029

Время: 02:04 (00:04 UTC)


TAF: отсутствует

Метеонаблюдения и прогнозы для более 4000 аэропортов (сводки METAR и TAF).

Имеющиеся станции представлены на карте желтыми и красными точками.

Чтобы увидеть название станции, наведите на нее мышь.

Затем щелкните, чтобы увидеть метеонаблюдения и метеопрогнозы.

Управление картой: чтобы увеличить масштаб, щелкните зеленые кнопки с черным крестиком; чтобы уменьшить масштаб, щелкните зеленую кнопку с тире; для просмотра соседних карт щелкайте зеленые стрелки.


METAR-TAF: